createdAt,value
2017-08-29T00:00:49.165Z,97.60
2017-08-29T00:03:16.684Z,97.60
2017-08-29T00:05:44.235Z,97.40
2017-08-29T00:08:11.819Z,97.40
2017-08-29T00:10:39.400Z,97.40
2017-08-29T00:13:06.963Z,97.60
2017-08-29T00:15:34.552Z,97.70
2017-08-29T00:18:02.123Z,97.80
2017-08-29T00:20:29.749Z,97.90
2017-08-29T00:22:57.457Z,98.00
2017-08-29T00:25:25.015Z,98.20
2017-08-29T00:27:52.611Z,98.30
2017-08-29T00:30:20.205Z,98.40
2017-08-29T00:32:47.716Z,98.40
2017-08-29T00:35:15.299Z,98.40
2017-08-29T00:37:42.925Z,98.40
2017-08-29T00:40:10.531Z,98.50
2017-08-29T00:42:38.089Z,98.60
2017-08-29T00:45:05.880Z,98.20
2017-08-29T00:47:33.443Z,98.10
2017-08-29T00:50:01.026Z,97.90
2017-08-29T00:52:28.610Z,97.80
2017-08-29T00:54:56.153Z,97.80
2017-08-29T00:57:23.700Z,97.90
2017-08-29T00:59:51.289Z,97.90
2017-08-29T01:02:18.888Z,97.80
2017-08-29T01:04:46.466Z,97.80
2017-08-29T01:07:14.070Z,97.80
2017-08-29T01:09:41.599Z,97.60
2017-08-29T01:12:09.099Z,97.50
2017-08-29T01:14:36.745Z,97.60
2017-08-29T01:17:04.307Z,97.50
2017-08-29T01:19:31.871Z,97.60
2017-08-29T01:21:59.449Z,97.40
2017-08-29T01:24:27.019Z,97.30
2017-08-29T01:26:54.499Z,97.20
2017-08-29T01:29:22.112Z,97.40
2017-08-29T01:31:49.663Z,97.30
2017-08-29T01:34:17.201Z,97.40
2017-08-29T01:36:44.818Z,97.30
2017-08-29T01:39:12.385Z,97.20
2017-08-29T01:41:39.949Z,97.20
2017-08-29T01:44:07.565Z,97.10
2017-08-29T01:46:35.127Z,96.90
2017-08-29T01:49:02.666Z,97.00
2017-08-29T01:51:30.406Z,97.00
2017-08-29T01:53:57.969Z,96.90
2017-08-29T01:56:25.550Z,97.00
2017-08-29T01:58:53.154Z,97.00
2017-08-29T02:01:20.695Z,97.00
2017-08-29T02:03:48.254Z,97.00
2017-08-29T02:06:15.887Z,97.00
2017-08-29T02:08:43.453Z,97.60
2017-08-29T02:11:11.008Z,97.60
2017-08-29T02:13:38.779Z,97.50
2017-08-29T02:16:06.334Z,97.20
2017-08-29T02:18:33.901Z,97.10
2017-08-29T02:21:01.503Z,97.20
2017-08-29T02:23:29.052Z,97.30
2017-08-29T02:25:56.618Z,97.30
2017-08-29T02:28:24.228Z,97.40
2017-08-29T02:30:51.754Z,97.40
2017-08-29T02:33:19.255Z,97.50
2017-08-29T02:35:46.853Z,97.50
2017-08-29T02:38:14.444Z,97.50
2017-08-29T02:40:42.047Z,97.40
2017-08-29T02:43:09.817Z,97.60
2017-08-29T02:45:37.381Z,97.80
2017-08-29T02:48:16.158Z,97.70
2017-08-29T02:50:44.386Z,97.50
2017-08-29T02:53:12.044Z,97.40
2017-08-29T02:55:39.626Z,97.40
2017-08-29T02:58:07.143Z,97.50
2017-08-29T03:00:34.923Z,97.60
2017-08-29T03:03:02.478Z,97.60
2017-08-29T03:05:30.058Z,97.50
2017-08-29T03:07:57.745Z,97.60
2017-08-29T03:10:25.300Z,97.80
2017-08-29T03:12:52.862Z,97.80
2017-08-29T03:15:20.454Z,97.80
2017-08-29T03:17:48.029Z,98.20
2017-08-29T03:20:15.569Z,98.40
2017-08-29T03:22:45.241Z,98.70
2017-08-29T03:25:12.797Z,98.80
2017-08-29T03:27:40.364Z,99.10
2017-08-29T03:30:07.977Z,98.90
2017-08-29T03:32:35.560Z,98.40
2017-08-29T03:35:03.132Z,98.40
2017-08-29T03:37:30.781Z,98.30
2017-08-29T03:39:58.368Z,98.10
2017-08-29T03:42:25.904Z,98.00
2017-08-29T03:44:53.472Z,98.60
2017-08-29T03:47:21.034Z,98.10
2017-08-29T03:49:48.653Z,98.00
2017-08-29T03:52:16.241Z,97.90
2017-08-29T03:54:43.811Z,97.80
2017-08-29T03:57:11.357Z,98.30
2017-08-29T03:59:38.898Z,98.10
2017-08-29T04:02:06.456Z,97.90
2017-08-29T04:04:34.521Z,98.30
2017-08-29T04:07:03.858Z,98.20
2017-08-29T04:09:31.702Z,98.00
2017-08-29T04:11:59.363Z,98.10
2017-08-29T04:14:26.988Z,98.20
2017-08-29T04:16:54.599Z,98.30
2017-08-29T04:19:22.227Z,97.70
2017-08-29T04:21:49.833Z,97.40
2017-08-29T04:24:17.439Z,97.50
2017-08-29T04:26:45.058Z,97.60
2017-08-29T04:29:12.711Z,97.50
2017-08-29T04:31:40.300Z,97.20
2017-08-29T04:34:07.877Z,96.90
2017-08-29T04:36:35.572Z,95.80
2017-08-29T04:39:03.165Z,94.10
2017-08-29T04:41:30.714Z,92.20
2017-08-29T04:43:58.359Z,89.60
2017-08-29T04:46:25.997Z,86.40
2017-08-29T04:48:53.541Z,84.50
2017-08-29T04:51:21.229Z,81.20
2017-08-29T04:53:48.871Z,77.80
2017-08-29T04:56:16.430Z,74.80
2017-08-29T04:58:44.121Z,72.10
2017-08-29T05:01:11.701Z,70.10
2017-08-29T05:03:39.229Z,68.20
2017-08-29T05:06:06.937Z,65.70
2017-08-29T05:08:34.508Z,62.50
2017-08-29T05:11:02.091Z,61.20
2017-08-29T05:13:29.816Z,58.90
2017-08-29T05:15:57.488Z,56.70
2017-08-29T05:18:25.084Z,54.30
2017-08-29T05:20:52.668Z,53.40
2017-08-29T05:23:20.264Z,53.10
2017-08-29T05:25:47.786Z,51.70
2017-08-29T05:28:15.358Z,50.30
2017-08-29T05:30:42.923Z,49.40
2017-08-29T05:33:10.551Z,49.00
2017-08-29T05:35:38.154Z,46.30
2017-08-29T05:38:05.707Z,44.80
2017-08-29T05:40:33.200Z,46.30
2017-08-29T05:43:00.780Z,45.60
2017-08-29T05:45:28.342Z,45.10
2017-08-29T05:47:55.850Z,42.50
2017-08-29T05:50:23.414Z,41.70
2017-08-29T05:52:50.950Z,41.70
2017-08-29T05:55:18.477Z,40.90
2017-08-29T05:57:46.160Z,41.50
2017-08-29T06:00:13.657Z,40.40
2017-08-29T06:02:41.241Z,41.20
2017-08-29T06:05:08.967Z,39.20
2017-08-29T06:07:36.598Z,38.30
2017-08-29T06:10:04.176Z,37.90
2017-08-29T06:12:31.949Z,36.70
2017-08-29T06:14:59.507Z,36.00
2017-08-29T06:17:27.074Z,36.60
2017-08-29T06:19:54.671Z,35.30
2017-08-29T06:22:22.166Z,36.20
2017-08-29T06:24:49.769Z,34.80
2017-08-29T06:27:17.353Z,36.60
2017-08-29T06:29:44.901Z,35.50
2017-08-29T06:32:12.400Z,36.30
2017-08-29T06:34:39.990Z,35.80
2017-08-29T06:37:07.551Z,35.00
2017-08-29T06:39:35.095Z,35.00
2017-08-29T06:42:02.693Z,33.30
2017-08-29T06:44:30.223Z,34.70
2017-08-29T06:46:57.787Z,35.10
2017-08-29T06:49:25.372Z,34.90
2017-08-29T06:51:52.954Z,34.40
2017-08-29T06:54:20.537Z,34.00
2017-08-29T06:56:48.116Z,35.00
2017-08-29T06:59:15.664Z,35.30
2017-08-29T07:01:43.233Z,34.80
2017-08-29T07:07:28.373Z,32.00
2017-08-29T07:30:02.181Z,31.60
2017-08-29T07:32:29.920Z,31.00
2017-08-29T07:34:57.433Z,30.10
2017-08-29T07:37:25.018Z,29.90
2017-08-29T07:39:52.559Z,30.10
2017-08-29T07:42:20.104Z,29.90
2017-08-29T07:44:47.702Z,29.60
2017-08-29T07:55:55.939Z,28.40
2017-08-29T07:58:23.517Z,27.80
2017-08-29T08:00:51.080Z,28.80
2017-08-29T08:03:18.636Z,28.10
2017-08-29T08:05:46.199Z,28.10
2017-08-29T08:08:13.772Z,28.20
2017-08-29T08:10:41.362Z,28.50
2017-08-29T08:13:08.927Z,28.80
2017-08-29T08:15:36.550Z,27.80
2017-08-29T08:18:04.131Z,28.80
2017-08-29T08:20:31.688Z,27.00
2017-08-29T08:22:59.282Z,27.30
2017-08-29T08:25:27.011Z,26.80
2017-08-29T08:27:54.521Z,26.40
2017-08-29T08:30:22.099Z,24.70
2017-08-29T08:32:49.859Z,26.50
2017-08-29T08:35:17.377Z,25.30
2017-08-29T08:37:44.946Z,24.80
2017-08-29T08:40:12.680Z,26.00
2017-08-29T08:42:40.227Z,26.00
2017-08-29T08:45:07.775Z,25.90
2017-08-29T08:47:35.377Z,26.50
2017-08-29T08:50:02.917Z,27.30
2017-08-29T08:52:30.463Z,25.90
2017-08-29T08:54:58.715Z,25.90
2017-08-29T08:57:26.282Z,26.60
2017-08-29T09:03:02.766Z,27.00
2017-08-29T09:11:21.837Z,26.00
2017-08-29T09:13:49.420Z,26.90
2017-08-29T09:16:16.985Z,26.00
2017-08-29T09:18:44.689Z,25.40
2017-08-29T09:21:12.293Z,25.20
2017-08-29T12:30:12.231Z,43.70
2017-08-29T12:32:39.845Z,44.80
2017-08-29T12:35:07.437Z,43.70
2017-08-29T12:37:35.077Z,44.70
2017-08-29T12:40:02.655Z,44.40
2017-08-29T12:42:30.225Z,43.70
2017-08-29T12:44:57.789Z,45.50
2017-08-29T12:47:25.380Z,45.20
2017-08-29T12:49:52.902Z,45.00
2017-08-29T12:52:20.484Z,43.20
2017-08-29T12:54:48.031Z,43.20
2017-08-29T12:57:15.573Z,44.50
2017-08-29T12:59:43.629Z,44.60
2017-08-29T13:02:11.156Z,42.90
2017-08-29T13:04:38.717Z,44.70
2017-08-29T13:07:06.591Z,44.00
2017-08-29T13:09:34.148Z,43.00
2017-08-29T13:12:01.673Z,43.30
2017-08-29T13:14:29.286Z,43.50
2017-08-29T13:16:56.849Z,43.20
2017-08-29T13:19:24.406Z,44.30
2017-08-29T13:21:52.002Z,44.60
2017-08-29T13:24:19.668Z,44.50
2017-08-29T13:26:47.250Z,43.10
2017-08-29T13:29:14.844Z,44.10
2017-08-29T13:31:42.415Z,44.20
2017-08-29T13:34:10.748Z,43.60
2017-08-29T13:36:38.488Z,43.90
2017-08-29T13:39:06.059Z,44.20
2017-08-29T13:41:33.607Z,44.30
2017-08-29T13:44:01.169Z,44.30
2017-08-29T13:46:28.729Z,43.90
2017-08-29T13:48:56.267Z,43.30
2017-08-29T13:51:24.048Z,43.90
2017-08-29T13:53:51.615Z,43.60
2017-08-29T13:56:19.260Z,43.70
2017-08-29T13:58:47.792Z,45.70
2017-08-29T14:01:15.347Z,45.70
2017-08-29T14:03:42.876Z,41.90
2017-08-29T14:06:10.464Z,43.40
2017-08-29T14:08:38.038Z,44.30
2017-08-29T14:11:05.610Z,43.90
2017-08-29T14:13:33.253Z,44.10
2017-08-29T14:16:00.793Z,44.50
2017-08-29T14:18:28.306Z,43.80
2017-08-29T14:20:55.909Z,43.90
2017-08-29T14:23:23.450Z,43.90
2017-08-29T14:25:50.992Z,44.30
2017-08-29T14:28:18.585Z,44.50
2017-08-29T14:30:46.158Z,45.60
2017-08-29T14:33:13.723Z,44.20
2017-08-29T14:35:41.325Z,43.10
2017-08-29T14:38:10.061Z,43.70
2017-08-29T14:40:37.646Z,44.00
2017-08-29T14:43:05.224Z,44.70
2017-08-29T14:45:32.794Z,44.70
2017-08-29T14:48:12.303Z,43.50
2017-08-29T14:50:39.866Z,44.00
2017-08-29T14:53:07.462Z,44.10
2017-08-29T14:55:35.113Z,44.20
2017-08-29T14:58:02.686Z,42.70
2017-08-29T15:00:30.273Z,43.30
2017-08-29T15:02:58.010Z,43.90
2017-08-29T15:05:26.282Z,44.20
2017-08-29T15:07:53.835Z,44.20
2017-08-29T15:10:21.422Z,44.30
2017-08-29T15:12:49.602Z,45.20
2017-08-29T15:15:17.161Z,45.80
2017-08-29T15:17:44.976Z,46.00
2017-08-29T15:20:12.558Z,45.50
2017-08-29T15:22:40.136Z,45.50
2017-08-29T15:25:08.736Z,45.20
2017-08-29T15:27:36.271Z,44.20
2017-08-29T15:30:03.841Z,44.60
2017-08-29T15:32:31.481Z,43.80
2017-08-29T15:34:59.038Z,43.90
2017-08-29T15:37:26.582Z,44.80
2017-08-29T15:39:54.326Z,45.30
2017-08-29T15:42:21.873Z,44.40
2017-08-29T15:44:49.453Z,45.30
2017-08-29T15:47:17.030Z,45.80
2017-08-29T15:49:44.684Z,46.40
2017-08-29T15:52:12.356Z,45.40
2017-08-29T15:54:39.969Z,45.60
2017-08-29T15:57:07.643Z,45.90
2017-08-29T15:59:35.233Z,45.90
2017-08-29T16:02:02.889Z,46.50
2017-08-29T16:04:30.498Z,46.30
2017-08-29T16:06:58.060Z,46.20
2017-08-29T16:09:25.639Z,46.30
2017-08-29T16:11:53.171Z,47.70
2017-08-29T16:14:20.758Z,46.40
2017-08-29T16:16:48.349Z,47.60
2017-08-29T16:19:15.866Z,47.10
2017-08-29T16:21:43.453Z,47.80
2017-08-29T16:24:11.078Z,48.10
2017-08-29T16:26:38.711Z,48.10
2017-08-29T16:29:06.320Z,47.90
2017-08-29T16:31:33.926Z,48.40
2017-08-29T16:34:01.494Z,48.30
2017-08-29T16:36:29.080Z,48.90
2017-08-29T16:38:56.709Z,49.70
2017-08-29T16:41:24.276Z,50.60
2017-08-29T16:43:51.842Z,51.00
2017-08-29T16:46:19.539Z,50.40
2017-08-29T16:48:47.166Z,50.50
2017-08-29T16:51:14.745Z,51.60
2017-08-29T16:53:42.338Z,51.90
2017-08-29T16:56:09.915Z,52.00
2017-08-29T16:58:37.509Z,52.40
2017-08-29T17:01:05.115Z,52.50
2017-08-29T17:03:32.702Z,52.60
2017-08-29T17:06:00.249Z,53.30
2017-08-29T17:08:28.389Z,53.30
2017-08-29T17:10:55.949Z,53.90
2017-08-29T17:13:23.727Z,53.20
2017-08-29T17:15:51.384Z,53.70
2017-08-29T17:18:19.815Z,54.50
2017-08-29T17:20:47.376Z,53.40
2017-08-29T17:23:15.010Z,54.00
2017-08-29T17:25:42.788Z,55.00
2017-08-29T17:28:10.368Z,55.30
2017-08-29T17:30:38.146Z,55.40
2017-08-29T17:33:06.079Z,54.00
2017-08-29T17:35:33.624Z,55.50
2017-08-29T17:38:01.421Z,55.70
2017-08-29T17:40:29.041Z,55.20
2017-08-29T17:42:56.600Z,55.90
2017-08-29T17:45:24.241Z,56.60
2017-08-29T17:47:51.891Z,56.40
2017-08-29T17:50:20.295Z,57.10
2017-08-29T17:52:47.898Z,57.10
2017-08-29T17:55:15.490Z,58.10
2017-08-29T17:57:43.041Z,57.70
2017-08-29T18:00:10.630Z,56.80
2017-08-29T18:02:38.230Z,58.10
2017-08-29T18:05:05.829Z,58.70
2017-08-29T18:07:33.459Z,59.30
2017-08-29T18:10:02.416Z,59.80
2017-08-29T18:12:29.981Z,60.90
2017-08-29T18:14:57.940Z,61.70
2017-08-29T18:17:28.886Z,62.60
2017-08-29T18:19:56.694Z,64.10
2017-08-29T18:22:24.332Z,62.60
2017-08-29T18:24:52.238Z,63.00
2017-08-29T18:27:19.865Z,61.80
2017-08-29T18:29:47.667Z,63.10
2017-08-29T18:32:15.285Z,63.30
2017-08-29T18:34:43.260Z,64.40
2017-08-29T18:37:11.133Z,61.60
2017-08-29T18:39:39.480Z,62.60
2017-08-29T18:42:07.058Z,62.40
2017-08-29T18:44:34.677Z,61.00
2017-08-29T18:47:02.319Z,60.50
2017-08-29T18:49:29.953Z,61.30
2017-08-29T18:51:59.721Z,61.70
2017-08-29T18:54:28.066Z,62.50
2017-08-29T18:56:55.648Z,64.70
2017-08-29T18:59:23.270Z,64.10
2017-08-29T19:01:51.501Z,65.30
2017-08-29T19:04:19.570Z,64.90
2017-08-29T19:06:47.472Z,65.00
2017-08-29T19:09:15.179Z,66.30
2017-08-29T19:11:42.816Z,66.20
2017-08-29T19:14:10.678Z,66.00
2017-08-29T19:16:41.081Z,69.90
2017-08-29T19:19:08.694Z,67.80
2017-08-29T19:21:37.226Z,71.30
2017-08-29T19:24:04.906Z,73.70
2017-08-29T19:26:32.808Z,74.00
2017-08-29T19:29:00.693Z,75.60
2017-08-29T19:31:29.319Z,75.90
2017-08-29T19:33:58.927Z,76.60
2017-08-29T19:36:26.630Z,75.20
2017-08-29T19:38:55.183Z,77.40
2017-08-29T19:41:22.870Z,77.30
2017-08-29T19:43:51.305Z,78.70
2017-08-29T19:46:19.674Z,78.00
2017-08-29T19:48:49.222Z,79.90
2017-08-29T19:51:17.809Z,80.50
2017-08-29T19:53:45.428Z,81.50
2017-08-29T19:56:13.111Z,79.60
2017-08-29T19:58:40.772Z,80.80
2017-08-29T20:01:08.431Z,82.10
2017-08-29T20:03:36.828Z,81.90
2017-08-29T20:06:04.437Z,82.10
2017-08-29T20:08:32.230Z,82.80
2017-08-29T20:10:59.788Z,81.70
2017-08-29T20:13:27.377Z,81.60
2017-08-29T20:15:55.055Z,81.40
2017-08-29T20:18:22.788Z,81.80
2017-08-29T20:20:50.994Z,81.20
2017-08-29T20:23:18.599Z,79.70
2017-08-29T20:25:46.202Z,77.20
2017-08-29T20:28:13.789Z,77.90
2017-08-29T20:30:41.342Z,76.10
2017-08-29T20:33:09.024Z,74.80
2017-08-29T20:35:36.574Z,73.70
2017-08-29T20:38:04.182Z,74.80
2017-08-29T20:40:31.775Z,74.10
2017-08-29T20:42:59.452Z,73.70
2017-08-29T20:45:27.071Z,72.00
2017-08-29T20:47:54.640Z,72.20
2017-08-29T20:50:22.183Z,67.60
2017-08-29T20:52:49.748Z,67.30
2017-08-29T20:55:17.378Z,67.10
2017-08-29T20:57:44.917Z,67.10
2017-08-29T21:00:12.491Z,66.70
2017-08-29T21:02:40.063Z,67.80
2017-08-29T21:05:07.647Z,67.20
2017-08-29T21:07:35.214Z,67.50
2017-08-29T21:10:02.801Z,66.20
2017-08-29T21:12:30.408Z,65.90
2017-08-29T21:14:57.920Z,65.10
2017-08-29T21:17:25.460Z,66.90
2017-08-29T21:19:53.015Z,65.30
2017-08-29T21:22:20.711Z,66.00
2017-08-29T21:24:48.261Z,65.40
2017-08-29T21:27:15.755Z,67.00
2017-08-29T21:29:43.341Z,65.20
2017-08-29T21:32:10.941Z,66.40
2017-08-29T21:34:38.466Z,67.30
2017-08-29T21:37:06.467Z,67.10
2017-08-29T21:39:34.017Z,67.70
2017-08-29T21:42:01.627Z,67.70
2017-08-29T21:44:29.232Z,68.00
2017-08-29T21:46:56.801Z,67.70
2017-08-29T21:49:24.361Z,66.70
2017-08-29T21:51:51.867Z,67.60
2017-08-29T21:54:19.421Z,68.20
2017-08-29T21:56:46.940Z,68.40
2017-08-29T21:59:14.546Z,69.10
2017-08-29T22:01:45.411Z,69.10
2017-08-29T22:04:13.120Z,70.40
2017-08-29T22:06:40.782Z,70.10
2017-08-29T22:09:08.324Z,70.60
2017-08-29T22:11:35.899Z,71.30
2017-08-29T22:14:03.649Z,71.60
2017-08-29T22:16:31.212Z,71.70
2017-08-29T22:18:58.713Z,71.40
2017-08-29T22:21:26.249Z,72.30
2017-08-29T22:23:53.808Z,71.60
2017-08-29T22:26:21.358Z,72.90
2017-08-29T22:28:48.919Z,71.60
2017-08-29T22:31:16.471Z,72.10
2017-08-29T22:33:44.038Z,71.10
2017-08-29T22:36:11.544Z,71.00
2017-08-29T22:38:39.118Z,71.10
2017-08-29T22:41:06.680Z,71.00
2017-08-29T22:43:34.291Z,70.60
2017-08-29T22:46:01.861Z,71.50
2017-08-29T22:48:29.418Z,71.50
2017-08-29T22:50:56.957Z,71.10
2017-08-29T22:53:24.475Z,70.60
2017-08-29T22:55:51.989Z,71.50
2017-08-29T22:58:19.528Z,73.00
2017-08-29T23:00:47.024Z,72.70
2017-08-29T23:03:14.541Z,73.40
2017-08-29T23:05:42.121Z,74.40
2017-08-29T23:08:09.686Z,75.10
2017-08-29T23:10:37.292Z,74.00
2017-08-29T23:13:05.674Z,74.90
2017-08-29T23:15:33.207Z,74.10
2017-08-29T23:18:00.721Z,72.50
2017-08-29T23:20:28.310Z,73.90
2017-08-29T23:22:55.904Z,73.40
2017-08-29T23:25:23.457Z,73.50
2017-08-29T23:27:50.980Z,72.30
2017-08-29T23:30:18.552Z,72.00
2017-08-29T23:32:46.117Z,73.20
2017-08-29T23:35:13.650Z,71.60
2017-08-29T23:37:41.190Z,70.80
2017-08-29T23:40:08.729Z,71.50
2017-08-29T23:42:36.302Z,71.70
2017-08-29T23:45:03.850Z,70.80
2017-08-29T23:47:31.359Z,69.70
2017-08-29T23:49:58.865Z,69.80
2017-08-29T23:52:26.415Z,69.10
2017-08-29T23:54:53.962Z,68.40
2017-08-29T23:57:21.513Z,67.00
2017-08-29T23:59:49.121Z,66.40
